createdAt,value
2018-12-21T13:47:47.405Z,17.20
2018-12-21T13:53:50.876Z,14.50
2018-12-21T13:59:54.320Z,14.90
2018-12-21T14:05:57.760Z,14.60
2018-12-21T14:12:01.200Z,15.60
2018-12-21T14:18:05.059Z,15.20
2018-12-21T14:24:08.533Z,15.20
2018-12-21T14:30:12.707Z,15.60
2018-12-21T14:36:16.173Z,15.60
2018-12-21T14:42:19.585Z,15.40
2018-12-21T14:48:22.998Z,15.30
2018-12-21T14:54:26.437Z,14.90
2018-12-21T15:00:29.977Z,14.50
2018-12-21T15:06:33.405Z,14.40
2018-12-21T15:12:36.834Z,15.00
2018-12-21T15:18:47.214Z,14.90
2018-12-21T15:24:51.029Z,14.70
2018-12-21T15:30:54.515Z,14.60
2018-12-21T15:36:58.031Z,14.50
2018-12-21T15:43:02.325Z,14.50
2018-12-21T15:49:05.766Z,15.10
2018-12-21T15:55:09.230Z,15.10
2018-12-21T16:01:12.955Z,15.00
2018-12-21T16:07:16.427Z,15.50
2018-12-21T16:13:19.947Z,15.40
2018-12-21T16:19:23.398Z,16.00
2018-12-21T16:25:27.450Z,15.60
2018-12-21T16:31:31.502Z,14.90
2018-12-21T16:37:34.994Z,15.40
2018-12-21T16:43:38.469Z,14.90
2018-12-21T16:49:41.925Z,14.80
2018-12-21T16:55:45.507Z,15.20
2018-12-21T17:01:48.949Z,15.30
2018-12-21T17:07:52.537Z,14.90
2018-12-21T17:13:56.779Z,14.90
2018-12-21T17:20:00.206Z,14.90
2018-12-21T17:26:03.780Z,14.80
2018-12-21T17:32:07.338Z,15.10
2018-12-21T17:38:10.826Z,15.10
2018-12-21T17:44:14.284Z,15.30
2018-12-21T17:50:17.696Z,15.80
2018-12-21T17:56:29.686Z,15.00
2018-12-21T18:02:26.550Z,14.90
2018-12-21T18:08:29.948Z,14.30
2018-12-21T18:14:33.382Z,14.50
2018-12-21T18:20:36.799Z,14.50
2018-12-21T18:26:40.400Z,14.20
2018-12-21T18:32:43.828Z,14.20
2018-12-21T18:38:47.304Z,13.80
2018-12-21T18:44:50.802Z,13.90
2018-12-21T18:50:54.318Z,13.50
2018-12-21T18:57:00.263Z,13.10
2018-12-21T19:03:03.706Z,13.10
2018-12-21T19:09:07.170Z,12.40
2018-12-21T19:15:11.441Z,12.50
2018-12-21T19:21:14.981Z,12.40
2018-12-21T19:27:18.663Z,12.40
2018-12-21T19:33:22.066Z,12.20
2018-12-21T19:39:25.532Z,11.90
2018-12-21T19:45:28.968Z,11.70
2018-12-21T19:51:32.454Z,11.70
2018-12-21T19:57:35.989Z,11.80
2018-12-21T20:03:39.413Z,11.50
2018-12-21T20:09:42.830Z,11.40
2018-12-21T20:15:46.264Z,11.40
2018-12-21T20:21:50.351Z,11.30
2018-12-21T20:27:54.463Z,11.30
2018-12-21T20:33:57.966Z,11.20
2018-12-21T20:40:01.543Z,11.20
2018-12-21T20:46:05.226Z,11.20
2018-12-21T20:52:08.696Z,11.10
2018-12-21T20:58:19.404Z,11.20
2018-12-21T21:04:24.311Z,11.20
2018-12-21T21:10:28.012Z,11.30
2018-12-21T21:16:31.859Z,11.10
2018-12-21T21:22:35.300Z,11.20
2018-12-21T21:28:38.880Z,11.20
2018-12-21T21:34:44.818Z,11.10
2018-12-21T21:40:48.612Z,11.10
2018-12-21T21:46:52.150Z,11.20
2018-12-21T21:52:55.627Z,11.10
2018-12-21T21:58:59.124Z,11.20
2018-12-21T22:05:02.671Z,11.20
2018-12-21T22:11:06.228Z,11.20
2018-12-21T22:17:09.684Z,11.10
2018-12-21T22:23:13.163Z,11.10
2018-12-21T22:29:16.621Z,11.10
2018-12-21T22:35:20.047Z,11.10
2018-12-21T22:41:23.596Z,11.00
2018-12-21T22:47:27.034Z,11.00
2018-12-21T22:53:31.086Z,10.90
2018-12-21T22:59:34.523Z,11.10
2018-12-21T23:05:37.939Z,11.50
2018-12-21T23:11:41.344Z,12.20
2018-12-21T23:17:44.763Z,12.40
2018-12-21T23:23:48.221Z,13.20
2018-12-21T23:29:51.663Z,13.40
2018-12-21T23:35:55.412Z,13.60
2018-12-21T23:41:59.099Z,13.90
2018-12-21T23:48:02.546Z,13.90
2018-12-21T23:54:05.965Z,13.80
